Flight Track Log - Related Links

Times and Time Zones

All times are in EST time to prevent confusion due to time zone crossing. See the FDX1254 flight status page for this flight to view local times or setup timezone preferences in your user account.

Time Position Orientation Groundspeed Altitude Reporting Facility
EST Latitude Longitude Course Direction KTS MPH feet Rate Location/Type
Tue 08:55:40 PM 41.7497 -71.5480 312° West 230 265 6,800  Level FlightAware ADS-B
Tue 08:55:56 PM 41.7610 -71.5648 312° West 229 264 7,600 3,450 Climbing FlightAware ADS-B
Tue 08:56:20 PM 41.7776 -71.5885 313° West 229 264 9,100 3,055 Climbing FlightAware ADS-B
Tue 08:56:51 PM 41.8006 -71.6215 313° West 247 284 10,400 1,846 Climbing FlightAware ADS-B
Tue 08:57:25 PM 41.8307 -71.6645 313° West 292 336 11,100 1,846 Climbing FlightAware ADS-B
Tue 08:57:56 PM 41.8604 -71.7058 314° West 308 354 12,400 3,250 Climbing FlightAware ADS-B
Tue 08:58:37 PM 41.9011 -71.7648 313° West 317 365 15,000 3,890 Climbing FlightAware ADS-B
Tue 08:59:27 PM 41.9485 -71.8338 307° West 317 365 18,300 3,706 Climbing FlightAware ADS-B
Tue 08:59:45 PM 41.9629 -71.8679 300° West 326 375 19,200 2,927 Climbing FlightAware ADS-B
Tue 09:00:08 PM 41.9772 -71.9111 294° West 331 381 20,300 2,949 Climbing FlightAware ADS-B
Tue 09:00:44 PM 41.9967 -71.9761 292° West 335 386 22,100 2,074 Climbing FlightAware ADS-B (KSNC)
Tue 09:01:29 PM 42.0231 -72.0614 293° West 339 390 23,100 1,521 Climbing FlightAware ADS-B (KSNC)
Tue 09:01:55 PM 42.0379 -72.1103 292° West 342 394 23,900 931 Climbing FlightAware ADS-B
Tue 09:02:27 PM 42.0549 -72.1654 293° West 341 392 24,000 794 Climbing FlightAware ADS-B (KSNC)
Tue 09:03:03 PM 42.0815 -72.2522 292° West 345 397 24,800 1,941 Climbing FlightAware ADS-B
Tue 09:03:35 PM 42.1016 -72.3181 292° West 348 400 26,200 1,913 Climbing FlightAware ADS-B (KSNC)
Tue 09:04:12 PM 42.1240 -72.3920 292° West 350 403 27,000 750 Climbing FlightAware ADS-B (KSNC)
Tue 09:04:47 PM 42.1458 -72.4635 292° West 356 410 27,100 1,054 Climbing FlightAware ADS-B (KSNC)
Tue 09:05:26 PM 42.1622 -72.5170 292° West 363 418 28,300 1,652 Climbing FlightAware ADS-B (KSNC)
Tue 09:05:56 PM 42.1894 -72.6078 292° West 370 426 29,000 1,944 Climbing FlightAware ADS-B (KSNC)
Tue 09:06:37 PM 42.2154 -72.6951 292° West 368 423 30,600 2,430 Climbing FlightAware ADS-B (KSNC)
Tue 09:07:15 PM 42.2396 -72.7757 292° West 366 421 32,200 1,948 Climbing FlightAware ADS-B (KSNC)
Tue 09:07:54 PM 42.2623 -72.8505 292° West 372 428 33,100 1,652 Climbing FlightAware ADS-B (KSNC)
Tue 09:08:24 PM 42.2823 -72.9196 291° West 374 430 34,100 1,615 Climbing FlightAware ADS-B (KSNC)
Tue 09:08:46 PM 42.2883 -72.9706 279° West 383 441 34,500 1,132 Climbing FlightAware ADS-B (KSNC)
Tue 09:09:17 PM 42.2835 -73.0456 265° West 396 456 35,100 1,273 Climbing FlightAware ADS-B (KSNC)
Tue 09:09:52 PM 42.2758 -73.1299 263° West 404 465 35,900 1,273 Climbing FlightAware ADS-B (KSNC)
Tue 09:10:23 PM 42.2687 -73.2083 263° West 412 474 36,500 1,645 Climbing FlightAware ADS-B (KSNC)
Tue 09:10:54 PM 42.2609 -73.2945 263° West 406 467 37,600 1,920 Climbing FlightAware ADS-B (KSNC)
Tue 09:11:38 PM 42.2514 -73.4025 263° West 395 455 38,900 1,286 Climbing FlightAware ADS-B (KSNC)
Tue 09:12:46 PM 42.2366 -73.5666 263° West 405 466 40,000 528 Climbing FlightAware ADS-B
Tue 09:13:43 PM 42.2233 -73.7112 263° West 416 479 40,000  Level FlightAware ADS-B (KSNC)
Tue 09:14:57 PM 42.2051 -73.9064 263° West 416 479 40,000  Level FlightAware ADS-B
Tue 09:18:29 PM 42.1560 -74.4123 263° West 388 447 40,000  Level FlightAware ADS-B (KWWD)
Tue 09:21:49 PM 42.0773 -74.8909 258° West 413 475 40,000  Level FlightAware ADS-B (KWWD)
Tue 09:22:51 PM 42.0300 -75.0317 258° West 449 517 40,000  Level New York Center
Tue 09:23:51 PM 41.9792 -75.1733 244° Southwest 431 496 40,000  Level New York Center
Tue 09:24:51 PM 41.9383 -75.3156 249° West 418 481 40,000  Level New York Center
Tue 09:25:51 PM 41.9239 -75.4708 263° West 413 475 40,000  Level New York Center
Tue 09:31:10 PM 41.8833 -76.2756 263° West 408 470 40,000  Level FlightAware ADS-B (CYYZ)
Tue 09:31:23 PM 41.8807 -76.3257 266° West 410 472 40,000  Level FlightAware ADS-B (KWWD)
Tue 09:31:38 PM 41.8795 -76.3482 266° West 405 466 40,000  Level FlightAware ADS-B (CYYZ)
Tue 09:32:10 PM 41.8744 -76.4379 266° West 402 463 40,000  Level FlightAware ADS-B (CYYZ)
Tue 09:32:39 PM 41.8702 -76.5121 266° West 402 463 40,000  Level FlightAware ADS-B (CYYZ)
Tue 09:32:41 PM 41.8698 -76.5195 266° West 401 461 40,000  Level FlightAware ADS-B (KWWD)
Tue 09:33:10 PM 41.8659 -76.5864 266° West 404 465 40,000  Level FlightAware ADS-B (CYYZ)
Tue 09:33:39 PM 41.8617 -76.6590 266° West 408 470 40,000  Level FlightAware ADS-B (CYYZ)
Tue 09:34:09 PM 41.8571 -76.7374 266° West 411 473 40,000  Level FlightAware ADS-B (CYYZ)
Tue 09:34:40 PM 41.8525 -76.8136 265° West 414 476 40,000  Level FlightAware ADS-B (CYYZ)
Tue 09:35:09 PM 41.8481 -76.8876 265° West 416 479 40,000  Level FlightAware ADS-B (CYYZ)
Tue 09:35:40 PM 41.8437 -76.9619 265° West 417 480 40,000  Level FlightAware ADS-B (CYYZ)
Tue 09:36:09 PM 41.8392 -77.0340 265° West 419 482 40,000  Level FlightAware ADS-B (CYYZ)
Tue 09:36:40 PM 41.8338 -77.1219 265° West 420 483 40,000  Level FlightAware ADS-B (CYYZ)
Tue 09:37:09 PM 41.8293 -77.1944 265° West 420 483 40,000  Level FlightAware ADS-B (CYYZ)
Tue 09:37:39 PM 41.8240 -77.2771 265° West 419 482 40,000  Level FlightAware ADS-B (CYYZ)
Tue 09:38:09 PM 41.8190 -77.3544 265° West 418 481 40,000  Level FlightAware ADS-B (CYYZ)
Tue 09:38:40 PM 41.8141 -77.4317 265° West 417 480 40,000  Level FlightAware ADS-B (CYYZ)
Tue 09:39:09 PM 41.8090 -77.5060 265° West 416 479 40,000  Level FlightAware ADS-B (CYYZ)
Tue 09:39:39 PM 41.8044 -77.5777 265° West 414 476 40,000  Level FlightAware ADS-B (CYYZ)
Tue 09:40:10 PM 41.7988 -77.6617 265° West 414 476 40,000  Level FlightAware ADS-B (CYYZ)
Tue 09:40:39 PM 41.7940 -77.7331 265° West 414 476 40,000  Level FlightAware ADS-B (CYYZ)
Tue 09:41:09 PM 41.7892 -77.8045 265° West 414 476 40,000  Level FlightAware ADS-B (CYYZ)
Tue 09:42:10 PM 41.7783 -77.9616 265° West 412 474 40,000  Level FlightAware ADS-B (CYYZ)
Tue 09:42:40 PM 41.7727 -78.0400 265° West 411 473 40,000  Level FlightAware ADS-B (CYYZ)
Tue 09:43:09 PM 41.7676 -78.1134 265° West 411 473 40,000  Level FlightAware ADS-B (CYYZ)
Tue 09:43:40 PM 41.7621 -78.1840 264° West 411 473 40,000  Level FlightAware ADS-B (CYYZ)
Tue 09:44:10 PM 41.7608 -78.1992 264° West 411 473 40,000  Level FlightAware ADS-B (CYYZ)
Tue 09:44:39 PM 41.7488 -78.3454 264° West 411 473 40,000  Level FlightAware ADS-B (CYYZ)
Tue 09:45:09 PM 41.7426 -78.4211 264° West 410 472 40,000  Level FlightAware ADS-B (CYYZ)
Tue 09:45:39 PM 41.7365 -78.4961 264° West 409 471 40,000  Level FlightAware ADS-B (CYYZ)
Tue 09:46:09 PM 41.7303 -78.5712 264° West 407 468 40,000  Level FlightAware ADS-B (CYYZ)
Tue 09:46:38 PM 41.7245 -78.6385 264° West 406 467 40,000  Level FlightAware ADS-B (CYYZ)
Tue 09:47:09 PM 41.7177 -78.7182 264° West 405 466 40,000  Level FlightAware ADS-B (CYYZ)
Tue 09:47:39 PM 41.7114 -78.7925 264° West 404 465 40,000  Level FlightAware ADS-B (CYYZ)
Tue 09:48:10 PM 41.7052 -78.8668 264° West 403 464 40,000  Level FlightAware ADS-B (CYYZ)
Tue 09:48:39 PM 41.6985 -78.9432 263° West 402 463 40,000  Level FlightAware ADS-B (CYYZ)
Tue 09:49:10 PM 41.6920 -79.0171 263° West 401 461 40,000  Level FlightAware ADS-B (CYYZ)
Tue 09:49:39 PM 41.6861 -79.0856 263° West 400 460 40,000  Level FlightAware ADS-B (CYYZ)
Tue 09:50:09 PM 41.6791 -79.1639 263° West 398 458 40,000  Level FlightAware ADS-B (CYYZ)
Tue 09:50:27 PM 41.6771 -79.1859 263° West 397 457 40,000  Level FlightAware ADS-B (EPLB / LUZ)
Tue 09:50:40 PM 41.6727 -79.2345 263° West 396 456 40,000  Level FlightAware ADS-B (CYYZ)
Tue 09:51:10 PM 41.6660 -79.3094 263° West 395 455 40,000  Level FlightAware ADS-B (CYYZ)
Tue 09:51:22 PM 41.6636 -79.3360 263° West 395 455 40,000  Level FlightAware ADS-B (EPLB / LUZ)
Tue 09:51:39 PM 41.6595 -79.3820 263° West 394 453 40,000  Level FlightAware ADS-B (CYYZ)
Tue 09:52:09 PM 41.6529 -79.4541 263° West 393 452 40,000  Level FlightAware ADS-B (CYYZ)
Tue 09:52:34 PM 41.6477 -79.5118 263° West 393 452 40,000  Level FlightAware ADS-B (EPLB / LUZ)
Tue 09:52:39 PM 41.6463 -79.5262 263° West 394 453 40,000  Level FlightAware ADS-B (CYYZ)
Tue 09:53:09 PM 41.6396 -79.5984 263° West 394 453 40,000  Level FlightAware ADS-B (CYYZ)
Tue 09:53:39 PM 41.6330 -79.6683 263° West 395 455 40,000  Level FlightAware ADS-B (CYYZ)
Tue 09:53:44 PM 41.6332 -79.6681 31° Northeast 394 453 40,000  Level FlightAware ADS-B (EPLB / LUZ)
Tue 09:54:10 PM 41.6263 -79.7404 263° West 395 455 40,000  Level FlightAware ADS-B (CYYZ)
Tue 09:54:15 PM 41.6252 -79.7524 263° West 394 453 40,000  Level FlightAware ADS-B (EPLB / LUZ)
Tue 09:54:39 PM 41.6195 -79.8128 263° West 395 455 40,000  Level FlightAware ADS-B (CYYZ)
Tue 09:55:10 PM 41.6124 -79.8875 263° West 395 455 40,000  Level FlightAware ADS-B (CYYZ)
Tue 09:55:23 PM 41.6098 -79.9140 263° West 394 453 40,000  Level FlightAware ADS-B (EPLB / LUZ)
Tue 09:55:39 PM 41.6056 -79.9574 263° West 395 455 40,000  Level FlightAware ADS-B (CYYZ)
Tue 09:56:10 PM 41.5988 -80.0297 263° West 395 455 40,000  Level FlightAware ADS-B (CYYZ)
Tue 09:56:40 PM 41.5915 -80.1044 263° West 395 455 40,000  Level FlightAware ADS-B (CYYZ)
Tue 09:57:10 PM 41.5844 -80.1768 262° West 395 455 40,000  Level FlightAware ADS-B (CYYZ)
Tue 09:57:39 PM 41.5775 -80.2466 263° West 395 455 40,000  Level FlightAware ADS-B (CYYZ)
Tue 09:58:09 PM 41.5732 -80.2902 262° West 396 456 40,000  Level FlightAware ADS-B (CYYZ)
Tue 09:58:39 PM 41.5630 -80.3942 263° West 398 458 40,000  Level FlightAware ADS-B (CYYZ)
Tue 10:01:40 PM 41.5177 -80.8387 262° West 406 467 40,000  Level FlightAware ADS-B (EPLB / LUZ)
Tue 10:02:19 PM 41.5158 -80.8559 262° West 407 468 40,000  Level FlightAware ADS-B (EPLB / LUZ)
Tue 10:03:36 PM 41.4902 -81.0989 262° West 406 467 40,000  Level FlightAware ADS-B (EPLB / LUZ)
Tue 10:04:11 PM 41.4781 -81.2129 262° West 406 467 40,000  Level FlightAware ADS-B (EPLB / LUZ)
Tue 10:04:45 PM 41.4697 -81.2920 262° West 405 466 40,000  Level FlightAware ADS-B (EPLB / LUZ)
Tue 10:06:08 PM 41.4476 -81.4934 262° West 401 461 40,000  Level FlightAware ADS-B (EPLB / LUZ)
Tue 10:06:49 PM 41.4381 -81.5756 262° West 404 465 40,000  Level Cleveland Center
Tue 10:07:50 PM 41.4186 -81.7442 261° West 404 465 40,000  Level Cleveland Center
Tue 10:08:52 PM 41.4033 -81.8889 262° West 401 461 40,000  Level Cleveland Center
Tue 10:09:53 PM 41.3883 -82.0267 262° West 400 460 40,000  Level Cleveland Center
Tue 10:10:54 PM 41.3700 -82.1828 261° West 400 460 40,000  Level Cleveland Center
Tue 10:11:56 PM 41.3528 -82.3289 261° West 400 460 40,000 -293 Level Cleveland Center
Tue 10:12:57 PM 41.3353 -82.4753 261° West 400 460 39,400 -634 Descending Cleveland Center
Tue 10:13:59 PM 41.3186 -82.6217 261° West 399 459 38,700 -634 Descending Cleveland Center
Tue 10:15:00 PM 41.3008 -82.7642 261° West 392 451 38,100 -829 Descending Cleveland Center
Tue 10:16:02 PM 41.2842 -82.9011 261° West 379 436 37,000 -1,366 Descending Cleveland Center
Tue 10:17:03 PM 41.2678 -83.0358 261° West 368 423 35,300 -1,377 Descending Cleveland Center
Tue 10:18:04 PM 41.2494 -83.1800 260° West 369 425 34,200 -1,122 Descending Cleveland Center
Tue 10:19:06 PM 41.2331 -83.3106 261° West 364 419 33,000 -1,512 Descending Cleveland Center
Tue 10:20:07 PM 41.2172 -83.4417 261° West 363 418 31,100 -1,805 Descending Cleveland Center
Tue 10:21:09 PM 41.1989 -83.5772 260° West 369 425 29,300 -2,098 Descending Cleveland Center
Tue 10:22:10 PM 41.1811 -83.7164 260° West 378 435 26,800 -2,951 Descending Cleveland Center
Tue 10:23:11 PM 41.1586 -83.8847 260° West 385 443 23,300 -3,190 Descending Cleveland Center
Tue 10:24:16 PM 41.1403 -84.0269 260° West 366 421 20,100 -2,835 Descending Chicago Center
Tue 10:25:18 PM 41.1228 -84.1564 260° West 359 413 17,300 -2,732 Descending Chicago Center
Tue 10:26:19 PM 41.1056 -84.2800 260° West 344 396 14,500 -2,656 Descending Chicago Center
Tue 10:27:20 PM 41.0894 -84.4061 260° West 346 398 11,900 -1,610 Descending Chicago Center
Tue 10:28:22 PM 41.0733 -84.5150 259° West 312 359 11,200 -585 Descending Chicago Center
Tue 10:29:23 PM 41.0622 -84.5972 260° West 244 281 10,700 -1,082 Descending Chicago Center
Tue 10:30:24 PM 41.0514 -84.6761 260° West 224 258 9,000 -1,820 Descending Chicago Center
Tue 10:31:25 PM 41.0489 -84.7567 268° West 220 253 7,000 -1,707 Descending Chicago Center
Tue 10:32:27 PM 41.0478 -84.8394 269° West 222 255 5,500 -1,561 Descending Chicago Center
Tue 10:33:28 PM 41.0444 -84.9181 267° West 219 252 3,800 -1,180 Descending Chicago Center
Tue 10:34:29 PM 41.0422 -85.0017 268° West 206 237 3,100 -439 Descending Chicago Center
Tue 10:35:31 PM 41.0419 -85.0439 270° West 153 176 2,900 -341 Descending Chicago Center
Tue 10:36:32 PM 41.0403 -85.0844 267° West 127 146 2,400 -344 Descending Chicago Center
Tue 10:37:33 PM 41.0339 -85.1197 257° West 113 130 2,200 -295 Descending Chicago Center
Tue 10:38:34 PM 41.0167 -85.1408 223° Southwest 95 109 1,800 -393 Descending Chicago Center
Tue 10:40:00 PM 40.9667 -85.1833 246° West  Level FlightAware Approximate
Tue 10:47:00 PM 40.9785 -85.1952 246° West  Level Estimated

Login

Don't have an account? Register now (free) for customized features, flight alerts, and more!